sensor_id;sensor_type;location;lat;lon;timestamp;pressure;altitude;pressure_sealevel;temperature;humidity
61408;BME280;47274;43.054;25.146;2023-01-27T13:08:50;94634.75;;;-0.76;100.00
61408;BME280;47274;43.054;25.146;2023-01-27T13:11:30;94640.19;;;-0.69;100.00
61408;BME280;47274;43.054;25.146;2023-01-27T13:13:58;94646.56;;;-0.63;100.00
61408;BME280;47274;43.054;25.146;2023-01-27T13:16:28;94650.28;;;-0.56;100.00
61408;BME280;47274;43.054;25.146;2023-01-27T13:18:58;94624.69;;;-0.63;100.00
61408;BME280;47274;43.054;25.146;2023-01-27T13:21:33;94659.16;;;-0.51;100.00
61408;BME280;47274;43.054;25.146;2023-01-27T13:24:03;94658.97;;;-0.47;100.00
61408;BME280;47274;43.054;25.146;2023-01-27T13:26:33;94645.16;;;-0.55;100.00
61408;BME280;47274;43.054;25.146;2023-01-27T13:31:56;94632.16;;;-0.61;100.00
61408;BME280;47274;43.054;25.146;2023-01-27T13:34:45;94651.09;;;-0.43;100.00
61408;BME280;47274;43.054;25.146;2023-01-27T13:37:30;94661.34;;;-0.59;100.00
61408;BME280;47274;43.054;25.146;2023-01-27T13:40:20;94653.19;;;-0.62;100.00
61408;BME280;47274;43.054;25.146;2023-01-27T13:42:53;94630.94;;;-0.81;100.00
61408;BME280;47274;43.054;25.146;2023-01-27T13:45:49;94633.34;;;-0.80;100.00
61408;BME280;47274;43.054;25.146;2023-01-27T13:51:16;94660.41;;;-0.96;100.00
61408;BME280;47274;43.054;25.146;2023-01-27T13:53:47;94620.47;;;-1.28;100.00
61408;BME280;47274;43.054;25.146;2023-01-27T13:56:34;94674.16;;;-1.14;100.00
61408;BME280;47274;43.054;25.146;2023-01-27T14:15:48;94681.09;;;-1.45;100.00
61408;BME280;47274;43.054;25.146;2023-01-27T14:18:22;94684.91;;;-1.52;100.00
61408;BME280;47274;43.054;25.146;2023-01-27T14:20:59;94694.84;;;-1.51;100.00
61408;BME280;47274;43.054;25.146;2023-01-27T14:32:14;94690.31;;;-1.58;100.00
61408;BME280;47274;43.054;25.146;2023-01-27T14:43:44;94702.56;;;-1.67;100.00
61408;BME280;47274;43.054;25.146;2023-01-27T14:51:51;94700.59;;;-1.76;100.00
61408;BME280;47274;43.054;25.146;2023-01-27T15:03:11;94718.47;;;-1.80;100.00
61408;BME280;47274;43.054;25.146;2023-01-27T15:06:05;94710.31;;;-1.84;100.00
61408;BME280;47274;43.054;25.146;2023-01-27T15:12:04;94713.63;;;-1.83;100.00
61408;BME280;47274;43.054;25.146;2023-01-27T15:25:54;94664.88;;;-2.24;100.00
61408;BME280;47274;43.054;25.146;2023-01-27T15:28:27;94705.47;;;-2.01;100.00
61408;BME280;47274;43.054;25.146;2023-01-27T15:33:53;94685.53;;;-2.19;100.00
61408;BME280;47274;43.054;25.146;2023-01-27T15:36:38;94730.22;;;-1.95;100.00
61408;BME280;47274;43.054;25.146;2023-01-27T15:46:50;94725.66;;;-2.03;100.00
61408;BME280;47274;43.054;25.146;2023-01-27T15:49:22;94723.25;;;-2.04;100.00
61408;BME280;47274;43.054;25.146;2023-01-27T15:51:53;94693.50;;;-2.26;100.00
61408;BME280;47274;43.054;25.146;2023-01-27T15:54:31;94725.66;;;-2.03;100.00
61408;BME280;47274;43.054;25.146;2023-01-27T15:57:03;94730.97;;;-2.07;100.00
61408;BME280;47274;43.054;25.146;2023-01-27T15:59:47;94724.56;;;-2.13;100.00
61408;BME280;47274;43.054;25.146;2023-01-27T16:02:24;94732.66;;;-2.08;100.00
61408;BME280;47274;43.054;25.146;2023-01-27T16:08:10;94731.22;;;-2.12;100.00
61408;BME280;47274;43.054;25.146;2023-01-27T16:10:37;94672.94;;;-2.47;100.00
61408;BME280;47274;43.054;25.146;2023-01-27T16:13:33;94731.88;;;-2.08;100.00
61408;BME280;47274;43.054;25.146;2023-01-27T16:19:14;94737.88;;;-2.11;100.00
61408;BME280;47274;43.054;25.146;2023-01-27T16:22:04;94741.47;;;-2.15;100.00
61408;BME280;47274;43.054;25.146;2023-01-27T16:24:54;94753.03;;;-2.12;100.00
61408;BME280;47274;43.054;25.146;2023-01-27T16:30:23;94706.63;;;-2.35;100.00
61408;BME280;47274;43.054;25.146;2023-01-27T16:33:14;94715.50;;;-2.30;100.00
61408;BME280;47274;43.054;25.146;2023-01-27T16:35:48;94745.41;;;-2.11;100.00
61408;BME280;47274;43.054;25.146;2023-01-27T16:38:27;94757.53;;;-2.03;100.00
61408;BME280;47274;43.054;25.146;2023-01-27T16:41:00;94754.28;;;-2.05;100.00
61408;BME280;47274;43.054;25.146;2023-01-27T16:43:31;94755.19;;;-2.06;100.00
61408;BME280;47274;43.054;25.146;2023-01-27T16:46:01;94753.75;;;-2.10;100.00
61408;BME280;47274;43.054;25.146;2023-01-27T16:48:36;94751.31;;;-2.12;100.00
61408;BME280;47274;43.054;25.146;2023-01-27T16:51:12;94710.91;;;-2.38;100.00
61408;BME280;47274;43.054;25.146;2023-01-27T16:53:44;94723.84;;;-2.29;100.00
61408;BME280;47274;43.054;25.146;2023-01-27T16:56:27;94752.16;;;-2.11;100.00
61408;BME280;47274;43.054;25.146;2023-01-27T16:59:01;94759.94;;;-2.16;100.00
61408;BME280;47274;43.054;25.146;2023-01-27T17:01:44;94760.56;;;-2.12;100.00
61408;BME280;47274;43.054;25.146;2023-01-27T17:04:27;94755.53;;;-2.12;100.00
61408;BME280;47274;43.054;25.146;2023-01-27T17:07:07;94743.53;;;-2.22;100.00
61408;BME280;47274;43.054;25.146;2023-01-27T17:10:06;94753.41;;;-2.19;100.00
61408;BME280;47274;43.054;25.146;2023-01-27T17:12:43;94765.69;;;-2.14;100.00
61408;BME280;47274;43.054;25.146;2023-01-27T17:15:19;94760.09;;;-2.19;100.00
61408;BME280;47274;43.054;25.146;2023-01-27T17:17:48;94710.00;;;-2.51;100.00
61408;BME280;47274;43.054;25.146;2023-01-27T17:20:41;94772.25;;;-2.11;100.00
61408;BME280;47274;43.054;25.146;2023-01-27T17:23:39;94779.06;;;-2.13;100.00
61408;BME280;47274;43.054;25.146;2023-01-27T17:26:15;94765.34;;;-2.22;100.00
61408;BME280;47274;43.054;25.146;2023-01-27T17:28:44;94773.75;;;-2.23;100.00
61408;BME280;47274;43.054;25.146;2023-01-27T17:31:17;94766.31;;;-2.25;100.00
61408;BME280;47274;43.054;25.146;2023-01-27T17:33:47;94744.09;;;-2.47;100.00
61408;BME280;47274;43.054;25.146;2023-01-27T17:36:14;94744.91;;;-2.46;100.00
61408;BME280;47274;43.054;25.146;2023-01-27T17:38:48;94773.28;;;-2.30;100.00
61408;BME280;47274;43.054;25.146;2023-01-27T17:41:35;94784.59;;;-2.23;100.00
61408;BME280;47274;43.054;25.146;2023-01-27T17:44:13;94768.44;;;-2.33;100.00
61408;BME280;47274;43.054;25.146;2023-01-27T17:46:40;94739.50;;;-2.54;100.00
61408;BME280;47274;43.054;25.146;2023-01-27T17:49:12;94781.41;;;-2.25;100.00
61408;BME280;47274;43.054;25.146;2023-01-27T17:51:42;94787.22;;;-2.24;100.00
61408;BME280;47274;43.054;25.146;2023-01-27T17:54:27;94774.94;;;-2.29;100.00
61408;BME280;47274;43.054;25.146;2023-01-27T17:57:21;94782.53;;;-2.30;100.00
61408;BME280;47274;43.054;25.146;2023-01-27T18:02:30;94772.94;;;-2.38;100.00
61408;BME280;47274;43.054;25.146;2023-01-27T18:05:13;94771.13;;;-2.36;100.00
61408;BME280;47274;43.054;25.146;2023-01-27T18:07:43;94781.72;;;-2.31;100.00
61408;BME280;47274;43.054;25.146;2023-01-27T18:10:44;94788.19;;;-2.27;100.00
61408;BME280;47274;43.054;25.146;2023-01-27T18:16:14;94775.97;;;-2.33;100.00
61408;BME280;47274;43.054;25.146;2023-01-27T18:18:46;94787.91;;;-2.36;100.00
61408;BME280;47274;43.054;25.146;2023-01-27T18:21:25;94784.84;;;-2.42;100.00
61408;BME280;47274;43.054;25.146;2023-01-27T18:23:58;94780.81;;;-2.44;100.00
61408;BME280;47274;43.054;25.146;2023-01-27T18:26:38;94783.31;;;-2.44;100.00
61408;BME280;47274;43.054;25.146;2023-01-27T18:29:32;94764.97;;;-2.60;100.00
61408;BME280;47274;43.054;25.146;2023-01-27T18:32:16;94755.69;;;-2.74;100.00
61408;BME280;47274;43.054;25.146;2023-01-27T18:34:54;94797.22;;;-2.53;100.00
61408;BME280;47274;43.054;25.146;2023-01-27T18:37:29;94818.75;;;-2.49;100.00
61408;BME280;47274;43.054;25.146;2023-01-27T18:40:20;94805.41;;;-2.65;100.00
61408;BME280;47274;43.054;25.146;2023-01-27T18:42:54;94835.53;;;-2.49;100.00
61408;BME280;47274;43.054;25.146;2023-01-27T18:45:22;94840.78;;;-2.54;100.00
61408;BME280;47274;43.054;25.146;2023-01-27T18:47:49;94805.19;;;-2.76;100.00
61408;BME280;47274;43.054;25.146;2023-01-27T18:50:17;94837.72;;;-2.59;100.00
61408;BME280;47274;43.054;25.146;2023-01-27T18:52:45;94854.72;;;-2.48;100.00
61408;BME280;47274;43.054;25.146;2023-01-27T18:55:21;94856.34;;;-2.47;100.00
61408;BME280;47274;43.054;25.146;2023-01-27T18:57:56;94855.88;;;-2.54;100.00
61408;BME280;47274;43.054;25.146;2023-01-27T19:00:33;94843.22;;;-2.52;100.00
61408;BME280;47274;43.054;25.146;2023-01-27T19:03:13;94844.94;;;-2.53;100.00
61408;BME280;47274;43.054;25.146;2023-01-27T19:05:46;94845.81;;;-2.54;100.00
61408;BME280;47274;43.054;25.146;2023-01-27T19:08:14;94844.53;;;-2.61;100.00
61408;BME280;47274;43.054;25.146;2023-01-27T19:10:40;94819.28;;;-2.74;100.00
61408;BME280;47274;43.054;25.146;2023-01-27T19:13:08;94849.97;;;-2.53;100.00
61408;BME280;47274;43.054;25.146;2023-01-27T19:15:39;94849.66;;;-2.63;100.00
61408;BME280;47274;43.054;25.146;2023-01-27T19:18:22;94858.78;;;-2.62;100.00
61408;BME280;47274;43.054;25.146;2023-01-27T19:20:51;94843.41;;;-2.71;100.00
61408;BME280;47274;43.054;25.146;2023-01-27T19:23:21;94857.34;;;-2.66;100.00
61408;BME280;47274;43.054;25.146;2023-01-27T19:25:53;94858.69;;;-2.60;100.00
61408;BME280;47274;43.054;25.146;2023-01-27T19:28:30;94854.50;;;-2.59;100.00
61408;BME280;47274;43.054;25.146;2023-01-27T19:31:03;94847.53;;;-2.70;100.00
61408;BME280;47274;43.054;25.146;2023-01-27T19:33:32;94856.13;;;-2.74;100.00
61408;BME280;47274;43.054;25.146;2023-01-27T19:36:19;94852.50;;;-2.69;100.00
61408;BME280;47274;43.054;25.146;2023-01-27T19:39:14;94849.59;;;-2.77;100.00
61408;BME280;47274;43.054;25.146;2023-01-27T19:41:42;94858.75;;;-2.76;100.00
61408;BME280;47274;43.054;25.146;2023-01-27T19:44:14;94816.38;;;-2.98;100.00
61408;BME280;47274;43.054;25.146;2023-01-27T19:46:41;94852.00;;;-2.75;100.00
61408;BME280;47274;43.054;25.146;2023-01-27T19:49:17;94830.22;;;-2.91;100.00
61408;BME280;47274;43.054;25.146;2023-01-27T19:51:45;94858.81;;;-2.77;100.00
61408;BME280;47274;43.054;25.146;2023-01-27T19:54:11;94849.00;;;-2.82;100.00
61408;BME280;47274;43.054;25.146;2023-01-27T19:56:38;94862.38;;;-2.81;100.00
61408;BME280;47274;43.054;25.146;2023-01-27T19:59:08;94856.38;;;-2.95;100.00
61408;BME280;47274;43.054;25.146;2023-01-27T20:01:35;94827.00;;;-3.08;100.00
61408;BME280;47274;43.054;25.146;2023-01-27T20:04:01;94804.75;;;-3.30;100.00
61408;BME280;47274;43.054;25.146;2023-01-27T20:06:29;94835.44;;;-3.10;100.00
61408;BME280;47274;43.054;25.146;2023-01-27T20:08:59;94872.91;;;-2.91;100.00
61408;BME280;47274;43.054;25.146;2023-01-27T20:11:37;94851.78;;;-3.02;100.00
61408;BME280;47274;43.054;25.146;2023-01-27T20:14:16;94842.00;;;-3.07;100.00
61408;BME280;47274;43.054;25.146;2023-01-27T20:16:53;94848.88;;;-3.11;100.00
61408;BME280;47274;43.054;25.146;2023-01-27T20:19:20;94843.22;;;-3.14;100.00
61408;BME280;47274;43.054;25.146;2023-01-27T20:21:47;94889.13;;;-2.96;100.00
61408;BME280;47274;43.054;25.146;2023-01-27T20:24:17;94847.78;;;-3.22;100.00
61408;BME280;47274;43.054;25.146;2023-01-27T20:26:44;94887.16;;;-2.91;100.00
61408;BME280;47274;43.054;25.146;2023-01-27T20:29:12;94894.53;;;-2.88;100.00
61408;BME280;47274;43.054;25.146;2023-01-27T20:31:39;94894.78;;;-2.93;100.00
61408;BME280;47274;43.054;25.146;2023-01-27T20:34:08;94889.75;;;-2.93;100.00
61408;BME280;47274;43.054;25.146;2023-01-27T20:36:36;94855.91;;;-3.17;100.00
61408;BME280;47274;43.054;25.146;2023-01-27T20:39:02;94859.13;;;-3.15;100.00
61408;BME280;47274;43.054;25.146;2023-01-27T20:41:29;94881.91;;;-3.02;100.00
61408;BME280;47274;43.054;25.146;2023-01-27T20:43:57;94908.88;;;-2.90;100.00
61408;BME280;47274;43.054;25.146;2023-01-27T20:46:26;94894.78;;;-2.93;100.00
61408;BME280;47274;43.054;25.146;2023-01-27T20:48:53;94879.47;;;-3.04;100.00
61408;BME280;47274;43.054;25.146;2023-01-27T20:51:23;94895.03;;;-2.97;100.00
61408;BME280;47274;43.054;25.146;2023-01-27T20:53:50;94890.06;;;-2.99;100.00
61408;BME280;47274;43.054;25.146;2023-01-27T20:56:21;94873.06;;;-3.10;100.00
61408;BME280;47274;43.054;25.146;2023-01-27T20:58:49;94901.56;;;-2.95;100.00
61408;BME280;47274;43.054;25.146;2023-01-27T21:01:17;94868.31;;;-3.14;100.00
61408;BME280;47274;43.054;25.146;2023-01-27T21:03:45;94867.47;;;-3.15;100.00
61408;BME280;47274;43.054;25.146;2023-01-27T21:06:15;94906.59;;;-2.95;100.00
61408;BME280;47274;43.054;25.146;2023-01-27T21:08:45;94873.97;;;-3.11;100.00
61408;BME280;47274;43.054;25.146;2023-01-27T21:11:17;94870.22;;;-3.19;100.00
61408;BME280;47274;43.054;25.146;2023-01-27T21:13:45;94914.78;;;-2.91;100.00
61408;BME280;47274;43.054;25.146;2023-01-27T21:16:12;94913.31;;;-2.95;100.00
61408;BME280;47274;43.054;25.146;2023-01-27T21:18:38;94917.53;;;-2.96;100.00
61408;BME280;47274;43.054;25.146;2023-01-27T21:21:05;94929.69;;;-2.88;100.00
61408;BME280;47274;43.054;25.146;2023-01-27T21:23:33;94864.56;;;-3.23;100.00
61408;BME280;47274;43.054;25.146;2023-01-27T21:26:09;94880.91;;;-3.16;100.00
61408;BME280;47274;43.054;25.146;2023-01-27T21:28:39;94917.28;;;-2.91;100.00
61408;BME280;47274;43.054;25.146;2023-01-27T21:31:10;94933.88;;;-2.89;100.00
61408;BME280;47274;43.054;25.146;2023-01-27T21:33:40;94891.03;;;-3.17;100.00
61408;BME280;47274;43.054;25.146;2023-01-27T21:36:11;94933.16;;;-2.91;100.00
61408;BME280;47274;43.054;25.146;2023-01-27T21:38:38;94891.75;;;-3.15;100.00
61408;BME280;47274;43.054;25.146;2023-01-27T21:41:15;94944.75;;;-2.88;100.00
61408;BME280;47274;43.054;25.146;2023-01-27T21:44:04;94901.88;;;-3.17;100.00
61408;BME280;47274;43.054;25.146;2023-01-27T21:46:50;94910.88;;;-3.13;100.00
61408;BME280;47274;43.054;25.146;2023-01-27T21:49:17;94917.19;;;-3.05;100.00
61408;BME280;47274;43.054;25.146;2023-01-27T21:51:43;94899.28;;;-3.15;100.00
61408;BME280;47274;43.054;25.146;2023-01-27T21:54:09;94926.31;;;-3.04;100.00
61408;BME280;47274;43.054;25.146;2023-01-27T21:56:35;94950.50;;;-2.86;100.00
61408;BME280;47274;43.054;25.146;2023-01-27T21:59:01;94936.81;;;-2.96;100.00
61408;BME280;47274;43.054;25.146;2023-01-27T22:01:27;94939.38;;;-2.98;100.00
61408;BME280;47274;43.054;25.146;2023-01-27T22:03:55;94949.75;;;-2.88;100.00
61408;BME280;47274;43.054;25.146;2023-01-27T22:06:21;94909.16;;;-3.12;100.00
61408;BME280;47274;43.054;25.146;2023-01-27T22:08:50;94935.91;;;-2.95;100.00
61408;BME280;47274;43.054;25.146;2023-01-27T22:11:18;94917.13;;;-3.04;100.00
61408;BME280;47274;43.054;25.146;2023-01-27T22:13:44;94937.47;;;-2.93;100.00
61408;BME280;47274;43.054;25.146;2023-01-27T22:16:13;94938.25;;;-2.92;100.00
61408;BME280;47274;43.054;25.146;2023-01-27T22:18:40;94926.91;;;-2.99;100.00
61408;BME280;47274;43.054;25.146;2023-01-27T22:21:11;94894.41;;;-3.18;100.00
61408;BME280;47274;43.054;25.146;2023-01-27T22:23:37;94941.50;;;-2.90;100.00
61408;BME280;47274;43.054;25.146;2023-01-27T22:26:05;94899.38;;;-3.17;100.00
61408;BME280;47274;43.054;25.146;2023-01-27T22:28:33;94944.25;;;-2.95;100.00
61408;BME280;47274;43.054;25.146;2023-01-27T22:31:00;94943.44;;;-2.95;100.00
61408;BME280;47274;43.054;25.146;2023-01-27T22:33:26;94930.53;;;-3.05;100.00
61408;BME280;47274;43.054;25.146;2023-01-27T22:36:01;94915.16;;;-3.15;100.00
61408;BME280;47274;43.054;25.146;2023-01-27T22:38:28;94942.78;;;-2.99;100.00
61408;BME280;47274;43.054;25.146;2023-01-27T22:40:55;94873.75;;;-3.39;100.00
61408;BME280;47274;43.054;25.146;2023-01-27T22:43:23;94948.63;;;-2.98;100.00
61408;BME280;47274;43.054;25.146;2023-01-27T22:45:49;94905.59;;;-3.24;100.00
61408;BME280;47274;43.054;25.146;2023-01-27T22:48:15;94906.41;;;-3.23;100.00
61408;BME280;47274;43.054;25.146;2023-01-27T22:50:41;94947.00;;;-2.99;100.00
61408;BME280;47274;43.054;25.146;2023-01-27T22:53:07;94947.81;;;-2.99;100.00
61408;BME280;47274;43.054;25.146;2023-01-27T22:55:32;94955.34;;;-2.99;100.00
61408;BME280;47274;43.054;25.146;2023-01-27T22:57:58;94946.25;;;-3.01;100.00
61408;BME280;47274;43.054;25.146;2023-01-27T23:00:25;94952.81;;;-2.99;100.00
61408;BME280;47274;43.054;25.146;2023-01-27T23:02:51;94905.81;;;-3.28;100.00
61408;BME280;47274;43.054;25.146;2023-01-27T23:05:18;94943.03;;;-3.03;100.00
61408;BME280;47274;43.054;25.146;2023-01-27T23:07:46;94948.56;;;-2.97;100.00
61408;BME280;47274;43.054;25.146;2023-01-27T23:10:12;94904.94;;;-3.27;100.00
61408;BME280;47274;43.054;25.146;2023-01-27T23:12:38;94929.91;;;-3.08;100.00
61408;BME280;47274;43.054;25.146;2023-01-27T23:15:05;94943.69;;;-3.00;100.00
61408;BME280;47274;43.054;25.146;2023-01-27T23:17:30;94949.66;;;-3.02;100.00
61408;BME280;47274;43.054;25.146;2023-01-27T23:19:56;94934.84;;;-3.07;100.00
61408;BME280;47274;43.054;25.146;2023-01-27T23:22:22;94941.31;;;-3.03;100.00
61408;BME280;47274;43.054;25.146;2023-01-27T23:24:48;94947.91;;;-3.00;100.00
61408;BME280;47274;43.054;25.146;2023-01-27T23:27:14;94946.34;;;-3.03;100.00
61408;BME280;47274;43.054;25.146;2023-01-27T23:29:39;94943.84;;;-3.03;100.00
61408;BME280;47274;43.054;25.146;2023-01-27T23:32:05;94919.69;;;-3.21;100.00
61408;BME280;47274;43.054;25.146;2023-01-27T23:34:31;94960.28;;;-2.97;100.00
61408;BME280;47274;43.054;25.146;2023-01-27T23:36:57;94952.09;;;-3.01;100.00
61408;BME280;47274;43.054;25.146;2023-01-27T23:39:23;94959.41;;;-2.96;100.00
61408;BME280;47274;43.054;25.146;2023-01-27T23:41:49;94905.75;;;-3.27;100.00
61408;BME280;47274;43.054;25.146;2023-01-27T23:44:15;94954.53;;;-2.99;100.00
61408;BME280;47274;43.054;25.146;2023-01-27T23:46:40;94963.53;;;-2.95;100.00
61408;BME280;47274;43.054;25.146;2023-01-27T23:49:09;94965.38;;;-2.99;100.00
61408;BME280;47274;43.054;25.146;2023-01-27T23:51:35;94954.38;;;-2.96;100.00
61408;BME280;47274;43.054;25.146;2023-01-27T23:54:01;94918.84;;;-3.22;100.00
61408;BME280;47274;43.054;25.146;2023-01-27T23:56:28;94960.09;;;-2.94;100.00
61408;BME280;47274;43.054;25.146;2023-01-27T23:58:53;94970.59;;;-2.86;100.00
